Madison, California
Current Conditions -  °F | °C
As of 10:53 AM on Thursday 30 Oct 2014 (Local Time) from KSMF Reporting Station
Broken Clouds Broken Clouds  
Wind Chill: 66°   Ceiling: 24000
Heat Index: 66°   Visibility: 10mi
Dew Point: 47°   Wind: 5mph
Humidity: 50%   Direction: 190°S
Pressure: 29.95"   Gusts: NA
Location:  38.68°N, 121.97°W
Report Text: KSMF 301753Z 19004KT 10SM BKN240 19/08 A2995 RMK AO2 SLP141 T01890083 10189 20100 58001
Loading
Personal Weather Stations






























Interactive Weather Map
Tropical Storm Tracking
New forecast layout! Learn more

10-Day Weather Forecast

Advertisements
Track Severe Weather on mobile